sensor_id;sensor_type;location;lat;lon;timestamp;P1;P2;P0
43479;PMS5003;29067;35.492;-97.520;2024-01-25T00:00:32;31;24;
43479;PMS5003;29067;35.492;-97.520;2024-01-25T00:03:00;31;28;
43479;PMS5003;29067;35.492;-97.520;2024-01-25T00:05:29;32;26;
43479;PMS5003;29067;35.492;-97.520;2024-01-25T00:07:58;35;30;
43479;PMS5003;29067;35.492;-97.520;2024-01-25T00:10:26;34;29;
43479;PMS5003;29067;35.492;-97.520;2024-01-25T00:12:54;36;27;
43479;PMS5003;29067;35.492;-97.520;2024-01-25T00:15:22;27;26;
43479;PMS5003;29067;35.492;-97.520;2024-01-25T00:17:50;32;30;
43479;PMS5003;29067;35.492;-97.520;2024-01-25T00:20:18;40;30;
43479;PMS5003;29067;35.492;-97.520;2024-01-25T00:22:46;41;31;
43479;PMS5003;29067;35.492;-97.520;2024-01-25T00:25:14;37;30;
43479;PMS5003;29067;35.492;-97.520;2024-01-25T00:27:42;41;28;
43479;PMS5003;29067;35.492;-97.520;2024-01-25T00:30:10;41;33;
43479;PMS5003;29067;35.492;-97.520;2024-01-25T00:32:39;36;32;
43479;PMS5003;29067;35.492;-97.520;2024-01-25T00:35:07;42;37;
43479;PMS5003;29067;35.492;-97.520;2024-01-25T00:37:37;32;31;
43479;PMS5003;29067;35.492;-97.520;2024-01-25T00:40:06;40;35;
43479;PMS5003;29067;35.492;-97.520;2024-01-25T00:42:36;37;33;
43479;PMS5003;29067;35.492;-97.520;2024-01-25T00:45:08;38;33;
43479;PMS5003;29067;35.492;-97.520;2024-01-25T00:47:38;35;26;
43479;PMS5003;29067;35.492;-97.520;2024-01-25T00:50:06;36;31;
43479;PMS5003;29067;35.492;-97.520;2024-01-25T00:52:35;35;28;
43479;PMS5003;29067;35.492;-97.520;2024-01-25T00:55:03;28;25;
43479;PMS5003;29067;35.492;-97.520;2024-01-25T00:57:33;29;26;
43479;PMS5003;29067;35.492;-97.520;2024-01-25T01:00:01;31;27;
43479;PMS5003;29067;35.492;-97.520;2024-01-25T01:02:30;36;27;
43479;PMS5003;29067;35.492;-97.520;2024-01-25T01:05:02;33;27;
43479;PMS5003;29067;35.492;-97.520;2024-01-25T01:07:30;32;27;
43479;PMS5003;29067;35.492;-97.520;2024-01-25T01:09:58;30;28;
43479;PMS5003;29067;35.492;-97.520;2024-01-25T01:12:26;32;25;
43479;PMS5003;29067;35.492;-97.520;2024-01-25T01:14:54;27;27;
43479;PMS5003;29067;35.492;-97.520;2024-01-25T01:17:22;24;21;
43479;PMS5003;29067;35.492;-97.520;2024-01-25T01:19:50;28;22;
43479;PMS5003;29067;35.492;-97.520;2024-01-25T01:22:17;18;17;
43479;PMS5003;29067;35.492;-97.520;2024-01-25T01:24:45;18;16;
43479;PMS5003;29067;35.492;-97.520;2024-01-25T01:27:14;28;22;
43479;PMS5003;29067;35.492;-97.520;2024-01-25T01:29:42;31;23;
43479;PMS5003;29067;35.492;-97.520;2024-01-25T01:32:10;24;20;
43479;PMS5003;29067;35.492;-97.520;2024-01-25T01:34:38;21;17;
43479;PMS5003;29067;35.492;-97.520;2024-01-25T01:37:06;28;21;
43479;PMS5003;29067;35.492;-97.520;2024-01-25T01:39:34;22;21;
43479;PMS5003;29067;35.492;-97.520;2024-01-25T01:42:02;29;23;
43479;PMS5003;29067;35.492;-97.520;2024-01-25T01:44:30;22;19;
43479;PMS5003;29067;35.492;-97.520;2024-01-25T01:46:58;29;23;
43479;PMS5003;29067;35.492;-97.520;2024-01-25T01:49:27;28;22;
43479;PMS5003;29067;35.492;-97.520;2024-01-25T01:51:55;26;19;
43479;PMS5003;29067;35.492;-97.520;2024-01-25T01:54:23;19;18;
43479;PMS5003;29067;35.492;-97.520;2024-01-25T01:56:52;21;18;
43479;PMS5003;29067;35.492;-97.520;2024-01-25T01:59:20;22;21;
43479;PMS5003;29067;35.492;-97.520;2024-01-25T02:01:48;27;23;
43479;PMS5003;29067;35.492;-97.520;2024-01-25T02:04:15;31;21;
43479;PMS5003;29067;35.492;-97.520;2024-01-25T02:06:44;27;22;
43479;PMS5003;29067;35.492;-97.520;2024-01-25T02:09:12;24;22;
43479;PMS5003;29067;35.492;-97.520;2024-01-25T02:11:40;27;21;
43479;PMS5003;29067;35.492;-97.520;2024-01-25T02:14:08;29;23;
43479;PMS5003;29067;35.492;-97.520;2024-01-25T02:16:36;27;22;
43479;PMS5003;29067;35.492;-97.520;2024-01-25T02:19:05;23;22;
43479;PMS5003;29067;35.492;-97.520;2024-01-25T02:21:33;39;29;
43479;PMS5003;29067;35.492;-97.520;2024-01-25T02:24:02;31;26;
43479;PMS5003;29067;35.492;-97.520;2024-01-25T02:26:30;32;25;
43479;PMS5003;29067;35.492;-97.520;2024-01-25T02:28:58;25;22;
43479;PMS5003;29067;35.492;-97.520;2024-01-25T02:31:26;31;28;
43479;PMS5003;29067;35.492;-97.520;2024-01-25T02:33:54;27;24;
43479;PMS5003;29067;35.492;-97.520;2024-01-25T02:36:23;24;19;
43479;PMS5003;29067;35.492;-97.520;2024-01-25T02:38:50;25;22;
43479;PMS5003;29067;35.492;-97.520;2024-01-25T02:41:18;25;23;
43479;PMS5003;29067;35.492;-97.520;2024-01-25T02:43:46;35;23;
43479;PMS5003;29067;35.492;-97.520;2024-01-25T02:46:14;31;26;
43479;PMS5003;29067;35.492;-97.520;2024-01-25T02:48:42;30;25;
43479;PMS5003;29067;35.492;-97.520;2024-01-25T02:51:10;26;23;
43479;PMS5003;29067;35.492;-97.520;2024-01-25T02:53:39;28;27;
43479;PMS5003;29067;35.492;-97.520;2024-01-25T02:56:08;32;22;
43479;PMS5003;29067;35.492;-97.520;2024-01-25T02:58:36;36;28;
43479;PMS5003;29067;35.492;-97.520;2024-01-25T03:01:04;38;27;
43479;PMS5003;29067;35.492;-97.520;2024-01-25T03:03:32;27;23;
43479;PMS5003;29067;35.492;-97.520;2024-01-25T03:05:59;30;26;
43479;PMS5003;29067;35.492;-97.520;2024-01-25T03:08:29;26;21;
43479;PMS5003;29067;35.492;-97.520;2024-01-25T03:10:56;23;23;
43479;PMS5003;29067;35.492;-97.520;2024-01-25T03:13:24;29;25;
43479;PMS5003;29067;35.492;-97.520;2024-01-25T03:15:53;28;22;
43479;PMS5003;29067;35.492;-97.520;2024-01-25T03:18:21;26;23;
43479;PMS5003;29067;35.492;-97.520;2024-01-25T03:20:49;17;16;
43479;PMS5003;29067;35.492;-97.520;2024-01-25T03:23:17;20;20;
43479;PMS5003;29067;35.492;-97.520;2024-01-25T03:25:46;25;20;
43479;PMS5003;29067;35.492;-97.520;2024-01-25T03:28:13;30;21;
43479;PMS5003;29067;35.492;-97.520;2024-01-25T03:30:41;21;18;
43479;PMS5003;29067;35.492;-97.520;2024-01-25T03:33:09;22;17;
43479;PMS5003;29067;35.492;-97.520;2024-01-25T03:35:37;18;17;
43479;PMS5003;29067;35.492;-97.520;2024-01-25T03:38:05;17;16;
43479;PMS5003;29067;35.492;-97.520;2024-01-25T03:40:32;17;15;
43479;PMS5003;29067;35.492;-97.520;2024-01-25T03:43:00;15;13;
43479;PMS5003;29067;35.492;-97.520;2024-01-25T03:45:28;15;15;
43479;PMS5003;29067;35.492;-97.520;2024-01-25T03:47:56;21;17;
43479;PMS5003;29067;35.492;-97.520;2024-01-25T03:50:23;20;17;
43479;PMS5003;29067;35.492;-97.520;2024-01-25T03:52:52;16;15;
43479;PMS5003;29067;35.492;-97.520;2024-01-25T03:55:20;16;15;
43479;PMS5003;29067;35.492;-97.520;2024-01-25T03:57:48;16;12;
43479;PMS5003;29067;35.492;-97.520;2024-01-25T04:00:16;17;16;
43479;PMS5003;29067;35.492;-97.520;2024-01-25T04:02:44;20;20;
43479;PMS5003;29067;35.492;-97.520;2024-01-25T04:05:12;15;13;
43479;PMS5003;29067;35.492;-97.520;2024-01-25T04:07:40;15;12;
43479;PMS5003;29067;35.492;-97.520;2024-01-25T04:10:08;17;17;
43479;PMS5003;29067;35.492;-97.520;2024-01-25T04:12:36;21;20;
43479;PMS5003;29067;35.492;-97.520;2024-01-25T04:15:04;25;22;
43479;PMS5003;29067;35.492;-97.520;2024-01-25T04:17:33;33;30;
43479;PMS5003;29067;35.492;-97.520;2024-01-25T04:20:01;37;32;
43479;PMS5003;29067;35.492;-97.520;2024-01-25T04:22:29;32;30;
43479;PMS5003;29067;35.492;-97.520;2024-01-25T04:24:57;22;20;
43479;PMS5003;29067;35.492;-97.520;2024-01-25T04:27:25;17;14;
43479;PMS5003;29067;35.492;-97.520;2024-01-25T04:29:52;13;12;
43479;PMS5003;29067;35.492;-97.520;2024-01-25T04:32:20;11;11;
43479;PMS5003;29067;35.492;-97.520;2024-01-25T04:34:48;14;14;
43479;PMS5003;29067;35.492;-97.520;2024-01-25T04:37:16;16;12;
43479;PMS5003;29067;35.492;-97.520;2024-01-25T04:39:44;12;11;
43479;PMS5003;29067;35.492;-97.520;2024-01-25T04:42:12;13;11;
43479;PMS5003;29067;35.492;-97.520;2024-01-25T04:44:40;13;12;
43479;PMS5003;29067;35.492;-97.520;2024-01-25T04:47:08;11;11;
43479;PMS5003;29067;35.492;-97.520;2024-01-25T04:49:36;12;11;
43479;PMS5003;29067;35.492;-97.520;2024-01-25T04:52:04;12;11;
43479;PMS5003;29067;35.492;-97.520;2024-01-25T04:54:32;13;12;
43479;PMS5003;29067;35.492;-97.520;2024-01-25T04:57:00;9;8;
43479;PMS5003;29067;35.492;-97.520;2024-01-25T04:59:28;12;12;
43479;PMS5003;29067;35.492;-97.520;2024-01-25T05:01:55;12;11;
43479;PMS5003;29067;35.492;-97.520;2024-01-25T05:04:24;16;12;
43479;PMS5003;29067;35.492;-97.520;2024-01-25T05:06:52;11;11;
43479;PMS5003;29067;35.492;-97.520;2024-01-25T05:09:20;12;11;
43479;PMS5003;29067;35.492;-97.520;2024-01-25T05:11:48;14;14;
43479;PMS5003;29067;35.492;-97.520;2024-01-25T05:14:16;13;12;
43479;PMS5003;29067;35.492;-97.520;2024-01-25T05:16:44;12;12;
43479;PMS5003;29067;35.492;-97.520;2024-01-25T05:19:12;11;11;
43479;PMS5003;29067;35.492;-97.520;2024-01-25T05:21:40;16;14;
43479;PMS5003;29067;35.492;-97.520;2024-01-25T05:24:08;13;13;
43479;PMS5003;29067;35.492;-97.520;2024-01-25T05:26:35;11;10;
43479;PMS5003;29067;35.492;-97.520;2024-01-25T05:29:03;7;7;
43479;PMS5003;29067;35.492;-97.520;2024-01-25T05:31:31;11;11;
43479;PMS5003;29067;35.492;-97.520;2024-01-25T05:33:59;15;13;
43479;PMS5003;29067;35.492;-97.520;2024-01-25T05:36:27;13;12;
43479;PMS5003;29067;35.492;-97.520;2024-01-25T05:38:56;19;13;
43479;PMS5003;29067;35.492;-97.520;2024-01-25T05:41:23;12;12;
43479;PMS5003;29067;35.492;-97.520;2024-01-25T05:43:51;16;13;
43479;PMS5003;29067;35.492;-97.520;2024-01-25T05:46:19;21;16;
43479;PMS5003;29067;35.492;-97.520;2024-01-25T05:48:47;11;10;
43479;PMS5003;29067;35.492;-97.520;2024-01-25T05:51:15;16;12;
43479;PMS5003;29067;35.492;-97.520;2024-01-25T05:53:43;18;16;
43479;PMS5003;29067;35.492;-97.520;2024-01-25T05:56:10;20;15;
43479;PMS5003;29067;35.492;-97.520;2024-01-25T05:58:38;14;14;
43479;PMS5003;29067;35.492;-97.520;2024-01-25T06:01:06;13;12;
43479;PMS5003;29067;35.492;-97.520;2024-01-25T06:03:35;19;18;
43479;PMS5003;29067;35.492;-97.520;2024-01-25T06:06:02;21;17;
43479;PMS5003;29067;35.492;-97.520;2024-01-25T06:08:30;24;22;
43479;PMS5003;29067;35.492;-97.520;2024-01-25T06:10:58;21;21;
43479;PMS5003;29067;35.492;-97.520;2024-01-25T06:13:26;27;22;
43479;PMS5003;29067;35.492;-97.520;2024-01-25T06:15:53;26;23;
43479;PMS5003;29067;35.492;-97.520;2024-01-25T06:18:22;25;20;
43479;PMS5003;29067;35.492;-97.520;2024-01-25T06:20:49;24;17;
43479;PMS5003;29067;35.492;-97.520;2024-01-25T06:23:17;21;17;
43479;PMS5003;29067;35.492;-97.520;2024-01-25T06:25:45;25;21;
43479;PMS5003;29067;35.492;-97.520;2024-01-25T06:28:13;23;21;
43479;PMS5003;29067;35.492;-97.520;2024-01-25T06:30:41;26;20;
43479;PMS5003;29067;35.492;-97.520;2024-01-25T06:33:10;28;22;
43479;PMS5003;29067;35.492;-97.520;2024-01-25T06:35:37;25;20;
43479;PMS5003;29067;35.492;-97.520;2024-01-25T06:38:06;23;17;
43479;PMS5003;29067;35.492;-97.520;2024-01-25T06:40:34;24;19;
43479;PMS5003;29067;35.492;-97.520;2024-01-25T06:43:02;18;17;
43479;PMS5003;29067;35.492;-97.520;2024-01-25T06:45:30;18;17;
43479;PMS5003;29067;35.492;-97.520;2024-01-25T06:47:59;18;17;
43479;PMS5003;29067;35.492;-97.520;2024-01-25T06:50:27;20;18;
43479;PMS5003;29067;35.492;-97.520;2024-01-25T06:52:55;20;17;
43479;PMS5003;29067;35.492;-97.520;2024-01-25T06:55:23;27;21;
43479;PMS5003;29067;35.492;-97.520;2024-01-25T06:57:51;24;23;
43479;PMS5003;29067;35.492;-97.520;2024-01-25T07:00:20;18;17;
43479;PMS5003;29067;35.492;-97.520;2024-01-25T07:02:47;26;22;
43479;PMS5003;29067;35.492;-97.520;2024-01-25T07:05:15;26;21;
43479;PMS5003;29067;35.492;-97.520;2024-01-25T07:07:44;25;22;
43479;PMS5003;29067;35.492;-97.520;2024-01-25T07:10:12;22;17;
43479;PMS5003;29067;35.492;-97.520;2024-01-25T07:12:39;20;18;
43479;PMS5003;29067;35.492;-97.520;2024-01-25T07:15:07;22;16;
43479;PMS5003;29067;35.492;-97.520;2024-01-25T07:17:36;25;17;
43479;PMS5003;29067;35.492;-97.520;2024-01-25T07:20:04;18;16;
43479;PMS5003;29067;35.492;-97.520;2024-01-25T07:22:33;21;17;
43479;PMS5003;29067;35.492;-97.520;2024-01-25T07:25:01;18;13;
43479;PMS5003;29067;35.492;-97.520;2024-01-25T07:27:30;21;17;
43479;PMS5003;29067;35.492;-97.520;2024-01-25T07:29:58;21;18;
43479;PMS5003;29067;35.492;-97.520;2024-01-25T07:32:26;26;17;
43479;PMS5003;29067;35.492;-97.520;2024-01-25T07:34:54;23;21;
43479;PMS5003;29067;35.492;-97.520;2024-01-25T07:37:22;29;20;
43479;PMS5003;29067;35.492;-97.520;2024-01-25T07:39:50;29;20;
43479;PMS5003;29067;35.492;-97.520;2024-01-25T07:42:18;26;22;
43479;PMS5003;29067;35.492;-97.520;2024-01-25T07:44:45;21;18;
43479;PMS5003;29067;35.492;-97.520;2024-01-25T07:47:14;21;19;
43479;PMS5003;29067;35.492;-97.520;2024-01-25T07:49:41;30;25;
43479;PMS5003;29067;35.492;-97.520;2024-01-25T07:52:09;26;23;
43479;PMS5003;29067;35.492;-97.520;2024-01-25T07:54:38;25;21;
43479;PMS5003;29067;35.492;-97.520;2024-01-25T07:57:06;21;18;
43479;PMS5003;29067;35.492;-97.520;2024-01-25T07:59:34;25;21;
43479;PMS5003;29067;35.492;-97.520;2024-01-25T08:02:02;20;18;
43479;PMS5003;29067;35.492;-97.520;2024-01-25T08:04:30;33;21;
43479;PMS5003;29067;35.492;-97.520;2024-01-25T08:06:58;22;17;
43479;PMS5003;29067;35.492;-97.520;2024-01-25T08:09:26;21;19;
43479;PMS5003;29067;35.492;-97.520;2024-01-25T08:11:53;22;17;
43479;PMS5003;29067;35.492;-97.520;2024-01-25T08:14:22;21;21;
43479;PMS5003;29067;35.492;-97.520;2024-01-25T08:16:49;19;19;
43479;PMS5003;29067;35.492;-97.520;2024-01-25T08:19:17;22;19;
43479;PMS5003;29067;35.492;-97.520;2024-01-25T08:21:45;23;19;
43479;PMS5003;29067;35.492;-97.520;2024-01-25T08:24:13;26;18;
43479;PMS5003;29067;35.492;-97.520;2024-01-25T08:26:41;27;17;
43479;PMS5003;29067;35.492;-97.520;2024-01-25T08:29:10;18;17;
43479;PMS5003;29067;35.492;-97.520;2024-01-25T08:31:38;22;19;
43479;PMS5003;29067;35.492;-97.520;2024-01-25T08:34:06;19;18;
43479;PMS5003;29067;35.492;-97.520;2024-01-25T08:36:34;22;17;
43479;PMS5003;29067;35.492;-97.520;2024-01-25T08:39:02;20;20;
43479;PMS5003;29067;35.492;-97.520;2024-01-25T08:41:30;26;17;
43479;PMS5003;29067;35.492;-97.520;2024-01-25T08:43:58;26;21;
43479;PMS5003;29067;35.492;-97.520;2024-01-25T08:46:26;25;22;
43479;PMS5003;29067;35.492;-97.520;2024-01-25T08:48:54;27;25;
43479;PMS5003;29067;35.492;-97.520;2024-01-25T08:51:22;23;21;
43479;PMS5003;29067;35.492;-97.520;2024-01-25T08:53:50;30;18;
43479;PMS5003;29067;35.492;-97.520;2024-01-25T08:56:18;22;20;
43479;PMS5003;29067;35.492;-97.520;2024-01-25T08:58:46;23;20;
43479;PMS5003;29067;35.492;-97.520;2024-01-25T09:01:13;30;23;
43479;PMS5003;29067;35.492;-97.520;2024-01-25T09:03:41;21;20;
43479;PMS5003;29067;35.492;-97.520;2024-01-25T09:06:09;25;20;
43479;PMS5003;29067;35.492;-97.520;2024-01-25T09:08:37;18;17;
43479;PMS5003;29067;35.492;-97.520;2024-01-25T09:11:05;29;24;
43479;PMS5003;29067;35.492;-97.520;2024-01-25T09:13:33;24;22;
43479;PMS5003;29067;35.492;-97.520;2024-01-25T09:16:01;24;21;
43479;PMS5003;29067;35.492;-97.520;2024-01-25T09:18:30;32;22;
43479;PMS5003;29067;35.492;-97.520;2024-01-25T09:20:57;27;23;
43479;PMS5003;29067;35.492;-97.520;2024-01-25T09:23:25;25;18;
43479;PMS5003;29067;35.492;-97.520;2024-01-25T09:25:53;26;23;
43479;PMS5003;29067;35.492;-97.520;2024-01-25T09:28:21;35;28;
43479;PMS5003;29067;35.492;-97.520;2024-01-25T09:30:49;22;20;
43479;PMS5003;29067;35.492;-97.520;2024-01-25T09:33:17;22;20;
43479;PMS5003;29067;35.492;-97.520;2024-01-25T09:35:45;32;23;
43479;PMS5003;29067;35.492;-97.520;2024-01-25T09:38:14;27;20;
43479;PMS5003;29067;35.492;-97.520;2024-01-25T09:40:41;28;22;
43479;PMS5003;29067;35.492;-97.520;2024-01-25T09:43:10;24;22;
43479;PMS5003;29067;35.492;-97.520;2024-01-25T09:45:39;19;19;
43479;PMS5003;29067;35.492;-97.520;2024-01-25T09:48:08;30;22;
43479;PMS5003;29067;35.492;-97.520;2024-01-25T09:50:36;25;22;
43479;PMS5003;29067;35.492;-97.520;2024-01-25T09:53:04;28;25;
43479;PMS5003;29067;35.492;-97.520;2024-01-25T09:55:34;32;26;
43479;PMS5003;29067;35.492;-97.520;2024-01-25T09:58:07;30;22;
43479;PMS5003;29067;35.492;-97.520;2024-01-25T10:00:36;27;20;
43479;PMS5003;29067;35.492;-97.520;2024-01-25T10:03:04;25;21;
43479;PMS5003;29067;35.492;-97.520;2024-01-25T10:05:32;26;20;
43479;PMS5003;29067;35.492;-97.520;2024-01-25T10:07:59;27;21;
43479;PMS5003;29067;35.492;-97.520;2024-01-25T10:10:31;25;21;
43479;PMS5003;29067;35.492;-97.520;2024-01-25T10:13:00;20;18;
43479;PMS5003;29067;35.492;-97.520;2024-01-25T10:15:28;37;27;
43479;PMS5003;29067;35.492;-97.520;2024-01-25T10:17:56;35;25;
43479;PMS5003;29067;35.492;-97.520;2024-01-25T10:20:24;23;18;
43479;PMS5003;29067;35.492;-97.520;2024-01-25T10:22:52;30;23;
43479;PMS5003;29067;35.492;-97.520;2024-01-25T10:25:20;22;20;
43479;PMS5003;29067;35.492;-97.520;2024-01-25T10:27:48;23;21;
43479;PMS5003;29067;35.492;-97.520;2024-01-25T10:30:16;19;18;
43479;PMS5003;29067;35.492;-97.520;2024-01-25T10:32:44;31;29;
43479;PMS5003;29067;35.492;-97.520;2024-01-25T10:35:13;21;20;
43479;PMS5003;29067;35.492;-97.520;2024-01-25T10:37:41;23;22;
43479;PMS5003;29067;35.492;-97.520;2024-01-25T10:40:11;32;21;
43479;PMS5003;29067;35.492;-97.520;2024-01-25T10:42:40;30;26;
43479;PMS5003;29067;35.492;-97.520;2024-01-25T10:45:09;29;26;
43479;PMS5003;29067;35.492;-97.520;2024-01-25T10:47:37;25;20;
43479;PMS5003;29067;35.492;-97.520;2024-01-25T10:50:05;26;22;
43479;PMS5003;29067;35.492;-97.520;2024-01-25T10:52:34;21;20;
43479;PMS5003;29067;35.492;-97.520;2024-01-25T10:55:02;28;22;
43479;PMS5003;29067;35.492;-97.520;2024-01-25T10:57:34;20;16;
43479;PMS5003;29067;35.492;-97.520;2024-01-25T11:00:05;21;17;
43479;PMS5003;29067;35.492;-97.520;2024-01-25T11:02:36;20;16;
43479;PMS5003;29067;35.492;-97.520;2024-01-25T11:05:07;15;13;
43479;PMS5003;29067;35.492;-97.520;2024-01-25T11:07:41;12;11;
43479;PMS5003;29067;35.492;-97.520;2024-01-25T11:10:15;15;12;
43479;PMS5003;29067;35.492;-97.520;2024-01-25T11:12:54;10;10;
43479;PMS5003;29067;35.492;-97.520;2024-01-25T11:15:29;10;10;
43479;PMS5003;29067;35.492;-97.520;2024-01-25T11:17:58;11;10;
43479;PMS5003;29067;35.492;-97.520;2024-01-25T11:20:28;8;8;
43479;PMS5003;29067;35.492;-97.520;2024-01-25T11:22:57;10;10;
43479;PMS5003;29067;35.492;-97.520;2024-01-25T11:25:27;11;10;
43479;PMS5003;29067;35.492;-97.520;2024-01-25T11:27:55;8;7;
43479;PMS5003;29067;35.492;-97.520;2024-01-25T11:30:24;8;8;
43479;PMS5003;29067;35.492;-97.520;2024-01-25T11:32:53;10;10;
43479;PMS5003;29067;35.492;-97.520;2024-01-25T11:35:22;10;8;
43479;PMS5003;29067;35.492;-97.520;2024-01-25T11:37:50;8;8;
43479;PMS5003;29067;35.492;-97.520;2024-01-25T11:40:18;10;10;
43479;PMS5003;29067;35.492;-97.520;2024-01-25T11:42:48;12;10;
43479;PMS5003;29067;35.492;-97.520;2024-01-25T11:45:17;12;10;
43479;PMS5003;29067;35.492;-97.520;2024-01-25T11:47:45;13;11;
43479;PMS5003;29067;35.492;-97.520;2024-01-25T11:50:13;13;13;
43479;PMS5003;29067;35.492;-97.520;2024-01-25T11:52:41;11;11;
43479;PMS5003;29067;35.492;-97.520;2024-01-25T11:55:09;12;10;
43479;PMS5003;29067;35.492;-97.520;2024-01-25T11:57:38;12;11;
43479;PMS5003;29067;35.492;-97.520;2024-01-25T12:03:01;13;12;
43479;PMS5003;29067;35.492;-97.520;2024-01-25T12:05:29;12;11;
43479;PMS5003;29067;35.492;-97.520;2024-01-25T12:07:58;8;8;
43479;PMS5003;29067;35.492;-97.520;2024-01-25T12:10:26;11;10;
43479;PMS5003;29067;35.492;-97.520;2024-01-25T12:12:54;15;15;
43479;PMS5003;29067;35.492;-97.520;2024-01-25T12:15:23;8;8;
43479;PMS5003;29067;35.492;-97.520;2024-01-25T12:17:51;8;7;
43479;PMS5003;29067;35.492;-97.520;2024-01-25T12:20:19;7;7;
43479;PMS5003;29067;35.492;-97.520;2024-01-25T12:22:48;11;8;
43479;PMS5003;29067;35.492;-97.520;2024-01-25T12:25:17;8;8;
43479;PMS5003;29067;35.492;-97.520;2024-01-25T12:27:45;11;8;
43479;PMS5003;29067;35.492;-97.520;2024-01-25T12:30:15;11;11;
43479;PMS5003;29067;35.492;-97.520;2024-01-25T12:32:42;13;12;
43479;PMS5003;29067;35.492;-97.520;2024-01-25T12:35:11;10;10;
43479;PMS5003;29067;35.492;-97.520;2024-01-25T12:37:39;12;12;
43479;PMS5003;29067;35.492;-97.520;2024-01-25T12:40:07;13;12;
43479;PMS5003;29067;35.492;-97.520;2024-01-25T12:42:36;16;12;
43479;PMS5003;29067;35.492;-97.520;2024-01-25T12:45:04;15;13;
43479;PMS5003;29067;35.492;-97.520;2024-01-25T12:47:33;13;13;
43479;PMS5003;29067;35.492;-97.520;2024-01-25T12:50:01;13;13;
43479;PMS5003;29067;35.492;-97.520;2024-01-25T12:52:29;16;12;
43479;PMS5003;29067;35.492;-97.520;2024-01-25T12:54:57;15;12;
43479;PMS5003;29067;35.492;-97.520;2024-01-25T12:57:25;17;16;
43479;PMS5003;29067;35.492;-97.520;2024-01-25T12:59:52;17;13;
43479;PMS5003;29067;35.492;-97.520;2024-01-25T13:02:20;16;15;
43479;PMS5003;29067;35.492;-97.520;2024-01-25T13:04:48;12;12;
43479;PMS5003;29067;35.492;-97.520;2024-01-25T13:07:16;16;15;
43479;PMS5003;29067;35.492;-97.520;2024-01-25T13:09:44;16;8;
43479;PMS5003;29067;35.492;-97.520;2024-01-25T13:12:12;12;11;
43479;PMS5003;29067;35.492;-97.520;2024-01-25T13:14:40;10;10;
43479;PMS5003;29067;35.492;-97.520;2024-01-25T13:17:08;13;11;
43479;PMS5003;29067;35.492;-97.520;2024-01-25T13:19:36;15;13;
43479;PMS5003;29067;35.492;-97.520;2024-01-25T13:22:04;16;15;
43479;PMS5003;29067;35.492;-97.520;2024-01-25T13:24:32;17;17;
43479;PMS5003;29067;35.492;-97.520;2024-01-25T13:27:00;13;13;
43479;PMS5003;29067;35.492;-97.520;2024-01-25T13:29:28;15;15;
43479;PMS5003;29067;35.492;-97.520;2024-01-25T13:31:56;20;17;
43479;PMS5003;29067;35.492;-97.520;2024-01-25T13:34:24;21;18;
43479;PMS5003;29067;35.492;-97.520;2024-01-25T13:36:52;15;15;
43479;PMS5003;29067;35.492;-97.520;2024-01-25T13:39:20;20;20;
43479;PMS5003;29067;35.492;-97.520;2024-01-25T13:41:48;17;16;
43479;PMS5003;29067;35.492;-97.520;2024-01-25T13:44:16;15;12;
43479;PMS5003;29067;35.492;-97.520;2024-01-25T13:46:44;17;15;
43479;PMS5003;29067;35.492;-97.520;2024-01-25T13:49:12;12;12;
43479;PMS5003;29067;35.492;-97.520;2024-01-25T13:51:40;18;16;
43479;PMS5003;29067;35.492;-97.520;2024-01-25T13:54:08;16;15;
43479;PMS5003;29067;35.492;-97.520;2024-01-25T13:56:36;20;18;
43479;PMS5003;29067;35.492;-97.520;2024-01-25T13:59:04;16;14;
43479;PMS5003;29067;35.492;-97.520;2024-01-25T14:01:32;16;12;
43479;PMS5003;29067;35.492;-97.520;2024-01-25T14:04:00;11;11;
43479;PMS5003;29067;35.492;-97.520;2024-01-25T14:06:28;13;10;
43479;PMS5003;29067;35.492;-97.520;2024-01-25T14:08:56;15;12;
43479;PMS5003;29067;35.492;-97.520;2024-01-25T14:11:24;23;23;
43479;PMS5003;29067;35.492;-97.520;2024-01-25T14:13:52;17;17;
43479;PMS5003;29067;35.492;-97.520;2024-01-25T14:16:19;17;12;
43479;PMS5003;29067;35.492;-97.520;2024-01-25T14:18:47;17;13;
43479;PMS5003;29067;35.492;-97.520;2024-01-25T14:21:16;15;10;
43479;PMS5003;29067;35.492;-97.520;2024-01-25T14:23:44;17;16;
43479;PMS5003;29067;35.492;-97.520;2024-01-25T14:26:11;17;16;
43479;PMS5003;29067;35.492;-97.520;2024-01-25T14:28:40;12;10;
43479;PMS5003;29067;35.492;-97.520;2024-01-25T14:31:08;12;9;
43479;PMS5003;29067;35.492;-97.520;2024-01-25T14:33:35;10;10;
43479;PMS5003;29067;35.492;-97.520;2024-01-25T14:36:03;8;8;
43479;PMS5003;29067;35.492;-97.520;2024-01-25T14:38:32;11;10;
43479;PMS5003;29067;35.492;-97.520;2024-01-25T14:41:00;15;12;
43479;PMS5003;29067;35.492;-97.520;2024-01-25T14:43:28;12;12;
43479;PMS5003;29067;35.492;-97.520;2024-01-25T14:45:56;13;11;
43479;PMS5003;29067;35.492;-97.520;2024-01-25T14:48:24;8;8;
43479;PMS5003;29067;35.492;-97.520;2024-01-25T14:50:52;6;5;
43479;PMS5003;29067;35.492;-97.520;2024-01-25T14:53:20;8;8;
43479;PMS5003;29067;35.492;-97.520;2024-01-25T14:55:48;11;10;
43479;PMS5003;29067;35.492;-97.520;2024-01-25T14:58:17;12;10;
43479;PMS5003;29067;35.492;-97.520;2024-01-25T15:00:45;10;8;
43479;PMS5003;29067;35.492;-97.520;2024-01-25T15:03:13;7;7;
43479;PMS5003;29067;35.492;-97.520;2024-01-25T15:05:41;11;10;
43479;PMS5003;29067;35.492;-97.520;2024-01-25T15:08:09;12;11;
43479;PMS5003;29067;35.492;-97.520;2024-01-25T15:10:37;11;10;
43479;PMS5003;29067;35.492;-97.520;2024-01-25T15:13:05;8;8;
43479;PMS5003;29067;35.492;-97.520;2024-01-25T15:15:33;17;12;
43479;PMS5003;29067;35.492;-97.520;2024-01-25T15:18:01;20;18;
43479;PMS5003;29067;35.492;-97.520;2024-01-25T15:20:29;18;16;
43479;PMS5003;29067;35.492;-97.520;2024-01-25T15:22:57;11;11;
43479;PMS5003;29067;35.492;-97.520;2024-01-25T15:25:25;14;11;
43479;PMS5003;29067;35.492;-97.520;2024-01-25T15:27:53;9;8;
43479;PMS5003;29067;35.492;-97.520;2024-01-25T15:30:21;12;9;
43479;PMS5003;29067;35.492;-97.520;2024-01-25T15:32:50;9;8;
43479;PMS5003;29067;35.492;-97.520;2024-01-25T15:35:17;12;9;
43479;PMS5003;29067;35.492;-97.520;2024-01-25T15:37:45;9;8;
43479;PMS5003;29067;35.492;-97.520;2024-01-25T15:40:13;8;7;
43479;PMS5003;29067;35.492;-97.520;2024-01-25T15:42:42;7;7;
43479;PMS5003;29067;35.492;-97.520;2024-01-25T15:45:10;6;6;
43479;PMS5003;29067;35.492;-97.520;2024-01-25T15:47:38;9;9;
43479;PMS5003;29067;35.492;-97.520;2024-01-25T15:50:06;8;7;
43479;PMS5003;29067;35.492;-97.520;2024-01-25T15:52:35;7;7;
43479;PMS5003;29067;35.492;-97.520;2024-01-25T15:55:03;8;7;
43479;PMS5003;29067;35.492;-97.520;2024-01-25T15:57:31;9;8;